Buckeye, New Mexico
Current Conditions -  °F | °C
As of 8:50 AM on Wednesday 26 Nov 2014 (Local Time) from KHOB Reporting Station
Clear Clear  
Wind Chill: 57°   Ceiling: Unl
Heat Index: 57°   Visibility: 10mi
Dew Point: 19°   Wind: 23mph
Humidity: 23%   Direction: 310°NW
Pressure: 30.26"   Gusts: 30mph
Location:  32.9094°N, 103.479°W
Report Text: KHOB 261550Z 31020G26KT 10SM SKC 14/M07 A3026
Loading
Personal Weather Stations






























Interactive Weather Map New forecast layout! Learn more

10-Day Weather Forecast

Advertisements
Track Severe Weather on mobile